Royse City's Hourly Summary for Wednesday, May 16, 2018
Hour Temp
(f)
RH
(%)
Solar Rad.
(MJ/m2)
Rainfall
(in)
Wind
(mph)
5/16/2018 12:00 AM 68 79 0 0 0.09
5/16/2018 1:00 AM 66 84 0 0 0.03
5/16/2018 2:00 AM 65 89 0 0 0
5/16/2018 3:00 AM 65 89 0 0 0.35
5/16/2018 4:00 AM 64 95 0 0 0
5/16/2018 5:00 AM 64 95 0 0 0.69
5/16/2018 6:00 AM 63 99 0 0 0.95
5/16/2018 7:00 AM 64 94 0.04 0 0.47
5/16/2018 8:00 AM 66 83 0.29 0 0.07
5/16/2018 9:00 AM 71 66 1.17 0 0.76
5/16/2018 10:00 AM 75 60 1.93 0 1.54
5/16/2018 11:00 AM 79 57 2.49 0 1.15
5/16/2018 12:00 PM 81 54 2.02 0 1.36
5/16/2018 1:00 PM 82 51 2.38 0 1.89
5/16/2018 2:00 PM 84 47 3.37 0 1.84
5/16/2018 3:00 PM 86 42 3.18 0 2
5/16/2018 4:00 PM 88 38 2.69 0 1.16
5/16/2018 5:00 PM 89 35 2.35 0 1.56
5/16/2018 6:00 PM 89 35 0.78 0 1.79
5/16/2018 7:00 PM 87 35 0.86 0 1.38
5/16/2018 8:00 PM 85 46 0.29 0 0.47
5/16/2018 9:00 PM 79 55 0.01 0 0.16
5/16/2018 10:00 PM 76 65 0 0 0
5/16/2018 11:00 PM 73 73 0 0 0
Data Summary 75 65 23.85 0.00 0.82